createdAt,value
2023-11-10T00:00:46.950Z,68.73
2023-11-10T00:03:13.741Z,68.95
2023-11-10T00:05:41.892Z,68.23
2023-11-10T00:08:11.211Z,66.66
2023-11-10T00:10:37.908Z,70.38
2023-11-10T00:13:05.161Z,75.17
2023-11-10T00:15:32.045Z,71.72
2023-11-10T00:17:58.764Z,69.47
2023-11-10T00:20:25.385Z,68.67
2023-11-10T00:22:53.711Z,68.85
2023-11-10T00:25:20.387Z,68.45
2023-11-10T00:27:46.996Z,68.41
2023-11-10T00:30:14.629Z,71.06
2023-11-10T00:32:41.303Z,72.55
2023-11-10T00:35:08.810Z,69.28
2023-11-10T00:37:35.781Z,68.42
2023-11-10T00:40:04.277Z,69.08
2023-11-10T00:42:30.909Z,69.02
2023-11-10T00:44:57.640Z,68.48
2023-11-10T00:47:25.181Z,68.63
2023-11-10T00:49:53.404Z,68.63
2023-11-10T00:52:22.182Z,68.69
2023-11-10T00:54:49.465Z,63.13
2023-11-10T00:57:19.069Z,68.64
2023-11-10T00:59:45.816Z,68.35
2023-11-10T01:02:12.484Z,67.99
2023-11-10T01:04:39.220Z,68.38
2023-11-10T01:07:05.882Z,68.81
2023-11-10T01:09:32.498Z,68.29
2023-11-10T01:11:59.735Z,68.67
2023-11-10T01:14:27.798Z,67.96
2023-11-10T01:16:54.476Z,75.93
2023-11-10T01:19:21.197Z,69.91
2023-11-10T01:21:48.389Z,71.02
2023-11-10T01:24:17.713Z,69.02
2023-11-10T01:26:44.357Z,68.77
2023-11-10T01:29:11.034Z,67.57
2023-11-10T01:31:38.937Z,69.48
2023-11-10T01:34:05.603Z,61.87
2023-11-10T01:36:32.344Z,72.07
2023-11-10T01:38:58.980Z,69.23
2023-11-10T01:41:25.630Z,68.53
2023-11-10T01:43:52.261Z,68.85
2023-11-10T01:46:46.532Z,68.81
2023-11-10T01:49:15.781Z,68.25
2023-11-10T01:51:44.078Z,63.73
2023-11-10T01:54:13.729Z,69.25
2023-11-10T01:56:40.522Z,68.84
2023-11-10T01:59:13.594Z,68.19
2023-11-10T02:01:40.378Z,64.36
2023-11-10T02:04:09.984Z,62.74
2023-11-10T02:06:36.518Z,70.45
2023-11-10T02:09:03.159Z,68.48
2023-11-10T02:11:33.385Z,69.61
2023-11-10T02:14:01.893Z,71.65
2023-11-10T02:16:30.203Z,65.88
2023-11-10T02:18:57.350Z,71.99
2023-11-10T02:21:25.509Z,69.32
2023-11-10T02:23:55.641Z,68.58
2023-11-10T02:26:23.678Z,70.94
2023-11-10T02:28:50.316Z,69.21
2023-11-10T02:31:20.790Z,68.75
2023-11-10T02:33:47.772Z,67.98
2023-11-10T02:36:14.831Z,68.76
2023-11-10T02:38:43.453Z,66.68
2023-11-10T02:41:10.730Z,65.02
2023-11-10T02:43:39.165Z,71.80
2023-11-10T02:46:06.353Z,69.28
2023-11-10T02:48:33.231Z,68.10
2023-11-10T02:51:00.183Z,67.64
2023-11-10T02:53:26.854Z,68.90
2023-11-10T02:55:53.461Z,68.34
2023-11-10T02:58:20.162Z,68.63
2023-11-10T03:00:49.023Z,68.41
2023-11-10T03:03:16.257Z,65.88
2023-11-10T03:05:43.239Z,70.65
2023-11-10T03:08:09.988Z,65.40
2023-11-10T03:10:36.645Z,74.52
2023-11-10T03:13:04.406Z,69.62
2023-11-10T03:15:31.222Z,69.06
2023-11-10T03:17:59.504Z,68.27
2023-11-10T03:20:26.155Z,73.08
2023-11-10T03:22:52.802Z,69.47
2023-11-10T03:25:19.562Z,69.01
2023-11-10T03:27:46.306Z,68.33
2023-11-10T03:30:13.306Z,68.52
2023-11-10T03:32:40.283Z,68.19
2023-11-10T03:35:09.073Z,68.61
2023-11-10T03:37:36.316Z,68.12
2023-11-10T03:40:04.019Z,67.88
2023-11-10T03:42:31.648Z,68.45
2023-11-10T03:44:58.692Z,67.78
2023-11-10T03:47:25.388Z,66.03
2023-11-10T03:49:52.142Z,69.53
2023-11-10T03:52:20.187Z,68.88
2023-11-10T03:54:46.911Z,67.92
2023-11-10T03:57:13.751Z,67.83
2023-11-10T03:59:40.744Z,68.38
2023-11-10T04:02:07.851Z,63.59
2023-11-10T04:04:35.197Z,67.94
2023-11-10T04:07:04.993Z,71.43
2023-11-10T04:09:36.726Z,68.91
2023-11-10T04:12:04.399Z,68.55
2023-11-10T04:14:31.138Z,68.39
2023-11-10T04:16:57.737Z,68.36
2023-11-10T04:19:24.439Z,69.54
2023-11-10T04:21:51.116Z,68.30
2023-11-10T04:24:18.518Z,68.27
2023-11-10T04:26:46.951Z,68.55
2023-11-10T04:29:13.909Z,68.31
2023-11-10T04:31:41.800Z,67.89
2023-11-10T04:34:09.109Z,68.17
2023-11-10T04:36:40.540Z,67.37
2023-11-10T04:39:08.790Z,69.71
2023-11-10T04:41:35.527Z,68.77
2023-11-10T04:44:03.781Z,68.41
2023-11-10T04:46:32.006Z,65.20
2023-11-10T04:48:58.675Z,66.33
2023-11-10T04:51:28.860Z,68.83
2023-11-10T04:53:56.007Z,68.41
2023-11-10T04:56:22.647Z,68.54
2023-11-10T04:58:49.512Z,68.25
2023-11-10T05:01:17.636Z,68.43
2023-11-10T05:03:45.281Z,68.07
2023-11-10T05:06:12.280Z,67.20
2023-11-10T05:08:38.940Z,66.05
2023-11-10T05:11:05.934Z,68.66
2023-11-10T05:13:32.542Z,68.48
2023-11-10T05:15:59.456Z,65.13
2023-11-10T05:20:58.702Z,70.63
2023-11-10T05:23:25.396Z,70.29
2023-11-10T05:25:55.072Z,66.82
2023-11-10T05:28:21.561Z,68.99
2023-11-10T05:30:48.830Z,68.80
2023-11-10T05:33:15.519Z,68.88
2023-11-10T05:35:44.217Z,68.55
2023-11-10T05:38:10.888Z,68.07
2023-11-10T05:40:37.500Z,68.69
2023-11-10T05:43:04.156Z,68.51
2023-11-10T05:45:30.912Z,68.71
2023-11-10T05:47:57.593Z,68.57
2023-11-10T05:50:24.415Z,68.16
2023-11-10T05:52:52.395Z,68.46
2023-11-10T05:55:19.626Z,68.25
2023-11-10T05:57:47.440Z,68.37
2023-11-10T06:00:14.747Z,68.32
2023-11-10T06:02:43.086Z,68.16
2023-11-10T06:05:12.297Z,68.33
2023-11-10T06:07:39.985Z,69.56
2023-11-10T06:10:11.410Z,68.44
2023-11-10T06:12:39.144Z,68.39
2023-11-10T06:15:06.506Z,68.06
2023-11-10T06:17:33.207Z,68.86
2023-11-10T06:19:59.833Z,68.71
2023-11-10T06:22:27.153Z,68.97
2023-11-10T06:24:53.820Z,68.42
2023-11-10T06:27:25.015Z,68.78
2023-11-10T06:29:51.904Z,68.43
2023-11-10T06:32:19.419Z,68.50
2023-11-10T06:34:46.177Z,68.34
2023-11-10T06:37:13.583Z,68.72
2023-11-10T06:39:40.690Z,68.41
2023-11-10T06:42:07.923Z,68.27
2023-11-10T06:44:35.947Z,67.89
2023-11-10T06:47:02.742Z,69.24
2023-11-10T06:49:29.824Z,68.88
2023-11-10T06:51:56.672Z,68.20
2023-11-10T06:54:26.024Z,68.46
2023-11-10T06:56:54.473Z,68.19
2023-11-10T06:59:24.445Z,68.43
2023-11-10T07:01:52.479Z,68.17
2023-11-10T07:04:23.111Z,68.36
2023-11-10T07:06:49.828Z,68.42
2023-11-10T07:09:16.849Z,67.99
2023-11-10T07:11:43.527Z,68.46
2023-11-10T07:14:10.131Z,68.54
2023-11-10T07:16:37.731Z,68.12
2023-11-10T07:19:07.114Z,68.07
2023-11-10T07:21:33.765Z,68.01
2023-11-10T07:24:01.060Z,68.07
2023-11-10T07:26:30.533Z,67.77
2023-11-10T07:29:00.274Z,67.88
2023-11-10T07:31:26.741Z,67.80
2023-11-10T07:33:53.385Z,67.68
2023-11-10T07:36:21.375Z,67.60
2023-11-10T07:38:48.051Z,67.92
2023-11-10T07:41:14.678Z,66.88
2023-11-10T07:43:41.367Z,69.02
2023-11-10T07:46:08.206Z,67.17
2023-11-10T07:48:36.999Z,66.13
2023-11-10T07:51:04.748Z,67.75
2023-11-10T07:53:32.946Z,64.59
2023-11-10T07:56:00.524Z,67.75
2023-11-10T07:58:29.798Z,68.68
2023-11-10T08:00:56.508Z,68.31
2023-11-10T08:03:23.330Z,68.14
2023-11-10T08:05:52.217Z,64.20
2023-11-10T08:08:19.081Z,61.09
2023-11-10T08:10:48.520Z,58.28
2023-11-10T08:13:18.466Z,60.24
2023-11-10T08:15:47.190Z,55.76
2023-11-10T08:18:15.692Z,56.61
2023-11-10T08:20:43.839Z,51.41
2023-11-10T08:23:11.154Z,52.19
2023-11-10T08:25:37.861Z,52.02
2023-11-10T08:28:08.618Z,59.18
2023-11-10T08:30:35.322Z,60.01
2023-11-10T08:33:02.132Z,58.32
2023-11-10T08:35:29.084Z,57.89
2023-11-10T08:37:55.791Z,59.38
2023-11-10T08:40:25.217Z,61.19
2023-11-10T08:42:51.876Z,63.15
2023-11-10T08:45:20.374Z,67.18
2023-11-10T08:47:47.155Z,58.77
2023-11-10T08:50:14.281Z,64.03
2023-11-10T08:52:43.005Z,66.97
2023-11-10T08:55:11.797Z,66.41
2023-11-10T08:57:39.937Z,67.34
2023-11-10T09:00:10.122Z,67.14
2023-11-10T09:02:38.669Z,67.37
2023-11-10T09:05:06.449Z,67.26
2023-11-10T09:07:36.934Z,65.42
2023-11-10T09:10:03.832Z,65.56
2023-11-10T09:12:31.786Z,63.43
2023-11-10T09:14:59.037Z,68.58
2023-11-10T09:17:25.780Z,65.63
2023-11-10T09:19:53.768Z,66.18
2023-11-10T09:22:21.051Z,64.13
2023-11-10T09:24:48.413Z,64.84
2023-11-10T09:27:15.195Z,64.36
2023-11-10T09:29:42.642Z,65.97
2023-11-10T09:32:12.240Z,66.07
2023-11-10T09:34:38.979Z,69.85
2023-11-10T09:37:07.659Z,66.26
2023-11-10T09:39:34.570Z,65.71
2023-11-10T09:42:07.521Z,66.94
2023-11-10T09:44:37.997Z,67.84
2023-11-10T09:47:05.373Z,67.59
2023-11-10T09:49:32.437Z,68.40
2023-11-10T09:52:02.014Z,70.02
2023-11-10T09:54:32.870Z,70.79
2023-11-10T09:56:59.629Z,69.94
2023-11-10T09:59:28.830Z,69.81
2023-11-10T10:01:55.639Z,65.75
2023-11-10T10:04:22.449Z,66.94
2023-11-10T10:06:53.814Z,66.20
2023-11-10T10:09:20.479Z,66.46
2023-11-10T10:11:48.621Z,65.89
2023-11-10T10:14:15.560Z,64.76
2023-11-10T10:16:52.323Z,63.66
2023-11-10T10:19:24.176Z,62.63
2023-11-10T10:21:53.502Z,65.68
2023-11-10T10:24:23.386Z,58.94
2023-11-10T10:26:52.485Z,55.16
2023-11-10T10:29:19.556Z,58.13
2023-11-10T10:31:46.843Z,54.83
2023-11-10T10:34:13.994Z,51.56
2023-11-10T10:36:40.672Z,56.25
2023-11-10T10:39:11.943Z,58.89
2023-11-10T10:41:40.774Z,64.75
2023-11-10T10:44:10.962Z,60.87
2023-11-10T10:46:39.330Z,63.45
2023-11-10T10:49:08.095Z,65.96
2023-11-10T10:51:39.362Z,61.92
2023-11-10T10:54:07.861Z,63.90
2023-11-10T10:56:44.278Z,64.41
2023-11-10T10:59:14.026Z,65.04
2023-11-10T11:01:43.022Z,66.41
2023-11-10T11:04:27.896Z,65.39
2023-11-10T11:07:12.195Z,67.39
2023-11-10T11:10:00.060Z,67.34
2023-11-10T11:12:57.941Z,65.90
2023-11-10T11:15:34.299Z,66.36
2023-11-10T11:18:33.684Z,65.13
2023-11-10T11:21:00.730Z,67.14
2023-11-10T11:23:28.044Z,66.17
2023-11-10T11:25:59.355Z,63.86
2023-11-10T11:28:27.583Z,64.30
2023-11-10T11:31:09.630Z,62.90
2023-11-10T11:33:44.123Z,66.66
2023-11-10T11:36:15.166Z,67.89
2023-11-10T11:38:43.188Z,61.55
2023-11-10T11:41:12.976Z,64.67
2023-11-10T11:43:48.512Z,66.95
2023-11-10T11:46:19.513Z,65.89
2023-11-10T11:48:49.619Z,67.50
2023-11-10T11:51:19.239Z,67.49
2023-11-10T11:53:45.879Z,66.95
2023-11-10T11:56:14.200Z,66.42
2023-11-10T11:58:40.962Z,67.53
2023-11-10T12:01:08.678Z,68.44
2023-11-10T12:03:36.827Z,66.48
2023-11-10T12:06:05.154Z,67.31
2023-11-10T12:08:31.841Z,67.25
2023-11-10T12:10:58.542Z,67.58
2023-11-10T12:13:27.750Z,66.28
2023-11-10T12:15:55.904Z,67.00
2023-11-10T12:18:26.178Z,68.02
2023-11-10T12:20:54.455Z,67.97
2023-11-10T12:23:21.488Z,67.30
2023-11-10T12:25:49.974Z,69.40
2023-11-10T12:28:16.655Z,68.49
2023-11-10T12:30:43.788Z,68.63
2023-11-10T12:33:11.401Z,68.15
2023-11-10T12:35:40.489Z,68.39
2023-11-10T12:38:11.322Z,67.02
2023-11-10T12:40:40.756Z,67.92
2023-11-10T12:43:09.213Z,67.95
2023-11-10T12:45:36.086Z,68.25
2023-11-10T12:48:12.971Z,69.20
2023-11-10T12:50:39.765Z,69.18
2023-11-10T12:53:09.573Z,69.14
2023-11-10T12:55:36.451Z,68.02
2023-11-10T12:58:05.816Z,69.21
2023-11-10T13:00:36.408Z,68.20
2023-11-10T13:03:04.526Z,67.51
2023-11-10T13:05:31.906Z,68.00
2023-11-10T13:07:58.687Z,68.30
2023-11-10T13:10:32.409Z,69.19
2023-11-10T13:12:59.031Z,68.87
2023-11-10T13:15:26.037Z,68.25
2023-11-10T13:17:52.766Z,68.13
2023-11-10T13:20:22.973Z,67.75
2023-11-10T13:22:50.331Z,68.05
2023-11-10T13:25:18.974Z,68.11
2023-11-10T13:27:47.207Z,67.84
2023-11-10T13:30:15.242Z,66.76
2023-11-10T13:32:43.125Z,68.24
2023-11-10T13:35:11.173Z,68.72
2023-11-10T13:37:38.075Z,68.90
2023-11-10T13:40:13.649Z,70.19
2023-11-10T13:42:41.728Z,70.25
2023-11-10T13:45:12.290Z,68.76
2023-11-10T13:47:40.142Z,69.47
2023-11-10T13:50:08.332Z,69.42
2023-11-10T13:52:35.007Z,68.79
2023-11-10T13:55:01.690Z,69.36
2023-11-10T13:57:34.439Z,67.24
2023-11-10T14:00:01.332Z,68.71
2023-11-10T14:02:29.578Z,68.73
2023-11-10T14:04:56.248Z,69.60
2023-11-10T14:07:23.752Z,69.57
2023-11-10T14:09:50.753Z,68.12
2023-11-10T14:12:17.509Z,69.01
2023-11-10T14:14:45.900Z,67.40
2023-11-10T14:17:12.616Z,67.61
2023-11-10T14:19:40.710Z,66.27
2023-11-10T14:22:07.858Z,66.38
2023-11-10T14:24:34.673Z,67.30
2023-11-10T14:27:02.787Z,68.61
2023-11-10T14:29:29.616Z,69.09
2023-11-10T14:31:57.266Z,68.83
2023-11-10T14:34:29.146Z,68.59
2023-11-10T14:37:00.058Z,69.50
2023-11-10T14:39:27.238Z,68.51
2023-11-10T14:41:56.834Z,69.41
2023-11-10T14:44:24.303Z,69.72
2023-11-10T14:46:51.255Z,68.45
2023-11-10T14:49:20.204Z,69.14
2023-11-10T14:51:56.822Z,68.93
2023-11-10T14:54:24.858Z,68.79
2023-11-10T14:56:51.942Z,69.45
2023-11-10T14:59:18.620Z,69.81
2023-11-10T15:01:49.009Z,69.80
2023-11-10T15:04:21.280Z,69.76
2023-11-10T15:06:48.456Z,67.76
2023-11-10T15:09:15.329Z,70.08
2023-11-10T15:11:45.458Z,70.85
2023-11-10T15:14:12.355Z,69.88
2023-11-10T15:16:46.566Z,68.08
2023-11-10T15:19:13.970Z,70.45
2023-11-10T15:21:40.645Z,70.13
2023-11-10T15:24:09.756Z,68.39
2023-11-10T15:26:38.251Z,68.15
2023-11-10T15:29:06.410Z,70.72
2023-11-10T15:31:36.533Z,69.87
2023-11-10T15:34:04.488Z,67.75
2023-11-10T15:36:31.361Z,69.09
2023-11-10T15:39:09.738Z,65.85
2023-11-10T15:41:42.654Z,69.31
2023-11-10T15:44:10.861Z,65.69
2023-11-10T15:46:42.032Z,71.12
2023-11-10T15:49:11.579Z,69.64
2023-11-10T15:51:49.180Z,69.72
2023-11-10T15:54:22.766Z,67.50
2023-11-10T15:56:50.178Z,69.33
2023-11-10T15:59:20.582Z,65.99
2023-11-10T16:01:47.345Z,71.00
2023-11-10T16:04:14.373Z,66.43
2023-11-10T16:06:41.186Z,70.00
2023-11-10T16:09:08.871Z,69.88
2023-11-10T16:11:35.541Z,69.32
2023-11-10T16:14:02.825Z,68.88
2023-11-10T16:16:30.986Z,69.52
2023-11-10T16:18:57.963Z,66.34
2023-11-10T16:21:24.683Z,69.73
2023-11-10T16:23:51.567Z,69.44
2023-11-10T16:26:18.974Z,69.31
2023-11-10T16:28:45.982Z,68.69
2023-11-10T16:31:12.698Z,69.63
2023-11-10T16:33:41.630Z,69.07
2023-11-10T16:36:09.044Z,69.00
2023-11-10T16:38:35.713Z,69.38
2023-11-10T16:41:03.526Z,69.01
2023-11-10T16:43:32.744Z,69.63
2023-11-10T16:46:00.080Z,69.14
2023-11-10T16:48:26.828Z,68.80
2023-11-10T16:50:54.794Z,69.63
2023-11-10T16:53:21.406Z,69.34
2023-11-10T16:55:48.032Z,69.20
2023-11-10T16:58:14.752Z,68.65
2023-11-10T17:00:43.004Z,69.52
2023-11-10T17:03:11.327Z,68.36
2023-11-10T17:05:41.283Z,68.80
2023-11-10T17:08:09.310Z,68.87
2023-11-10T17:10:36.891Z,68.71
2023-11-10T17:13:05.057Z,69.23
2023-11-10T17:15:31.686Z,69.11
2023-11-10T17:17:58.394Z,68.61
2023-11-10T17:20:25.104Z,68.25
2023-11-10T17:22:51.751Z,68.59
2023-11-10T17:25:20.347Z,68.50
2023-11-10T17:27:47.693Z,68.96
2023-11-10T17:30:14.791Z,68.39
2023-11-10T17:32:42.649Z,69.23
2023-11-10T17:35:09.320Z,68.69
2023-11-10T17:37:35.963Z,68.36
2023-11-10T17:40:03.551Z,68.45
2023-11-10T17:42:37.568Z,68.90
2023-11-10T17:45:04.996Z,69.02
2023-11-10T17:47:34.745Z,68.71
2023-11-10T17:50:01.905Z,68.26
2023-11-10T17:52:28.631Z,68.92
2023-11-10T17:54:55.247Z,68.66
2023-11-10T17:57:23.450Z,62.71
2023-11-10T17:59:51.379Z,68.71
2023-11-10T18:02:18.043Z,69.82
2023-11-10T18:04:52.208Z,68.34
2023-11-10T18:07:22.605Z,68.97
2023-11-10T18:09:50.311Z,68.91
2023-11-10T18:12:17.037Z,68.50
2023-11-10T18:14:44.911Z,67.75
2023-11-10T18:17:13.165Z,68.09
2023-11-10T18:19:41.767Z,68.86
2023-11-10T18:22:08.425Z,68.08
2023-11-10T18:24:36.724Z,68.45
2023-11-10T18:27:06.683Z,69.03
2023-11-10T18:29:36.075Z,69.04
2023-11-10T18:32:02.998Z,68.89
2023-11-10T18:34:31.074Z,68.62
2023-11-10T18:36:57.787Z,68.44
2023-11-10T18:39:24.720Z,68.25
2023-11-10T18:41:54.315Z,68.67
2023-11-10T18:44:21.075Z,68.80
2023-11-10T18:46:47.853Z,68.75
2023-11-10T18:49:14.591Z,68.17
2023-11-10T18:51:42.736Z,68.25
2023-11-10T18:54:11.145Z,68.65
2023-11-10T18:56:37.811Z,68.77
2023-11-10T18:59:04.658Z,68.92
2023-11-10T19:01:31.442Z,68.50
2023-11-10T19:04:00.737Z,59.92
2023-11-10T19:06:28.903Z,69.69
2023-11-10T19:08:56.915Z,68.35
2023-11-10T19:11:23.563Z,67.95
2023-11-10T19:13:51.434Z,68.88
2023-11-10T19:16:18.622Z,68.04
2023-11-10T19:18:45.522Z,68.85
2023-11-10T19:21:12.390Z,68.22
2023-11-10T19:23:39.051Z,68.33
2023-11-10T19:26:08.502Z,68.40
2023-11-10T19:28:35.196Z,68.27
2023-11-10T19:31:01.910Z,67.73
2023-11-10T19:33:28.844Z,68.63
2023-11-10T19:35:55.829Z,68.36
2023-11-10T19:38:23.061Z,67.98
2023-11-10T19:40:49.804Z,68.38
2023-11-10T19:43:18.313Z,68.48
2023-11-10T19:45:45.036Z,68.33
2023-11-10T19:48:13.553Z,67.88
2023-11-10T19:50:40.146Z,68.04
2023-11-10T19:53:06.750Z,68.79
2023-11-10T19:55:39.628Z,67.73
2023-11-10T20:03:10.079Z,68.48
2023-11-10T20:05:36.854Z,63.79
2023-11-10T20:08:03.652Z,68.60
2023-11-10T20:10:30.484Z,68.64
2023-11-10T20:12:57.085Z,66.51
2023-11-10T20:15:24.368Z,70.08
2023-11-10T20:17:52.487Z,68.19
2023-11-10T20:20:22.477Z,68.60
2023-11-10T20:22:49.630Z,67.85
2023-11-10T20:25:16.388Z,69.29
2023-11-10T20:27:43.093Z,68.32
2023-11-10T20:30:14.670Z,68.38
2023-11-10T20:32:42.084Z,67.88
2023-11-10T20:35:10.439Z,65.29
2023-11-10T20:37:37.086Z,67.78
2023-11-10T20:40:10.931Z,67.85
2023-11-10T20:42:37.887Z,67.73
2023-11-10T20:45:05.804Z,68.42
2023-11-10T20:47:32.632Z,67.97
2023-11-10T20:49:59.377Z,67.46
2023-11-10T20:52:27.384Z,67.60
2023-11-10T20:54:54.117Z,67.70
2023-11-10T20:57:20.912Z,66.68
2023-11-10T20:59:47.566Z,67.53
2023-11-10T21:02:15.135Z,67.76
2023-11-10T21:04:41.867Z,69.69
2023-11-10T21:07:10.099Z,75.25
2023-11-10T21:09:39.146Z,69.61
2023-11-10T21:12:06.924Z,67.83
2023-11-10T21:14:33.613Z,68.11
2023-11-10T21:17:00.472Z,67.49
2023-11-10T21:19:27.300Z,67.94
2023-11-10T21:21:54.784Z,67.36
2023-11-10T21:24:21.507Z,67.49
2023-11-10T21:26:50.527Z,67.80
2023-11-10T21:29:17.256Z,68.03
2023-11-10T21:31:43.899Z,67.85
2023-11-10T21:34:10.621Z,67.35
2023-11-10T21:36:38.793Z,67.90
2023-11-10T21:39:06.922Z,68.12
2023-11-10T21:41:35.991Z,67.88
2023-11-10T21:44:04.310Z,67.42
2023-11-10T21:46:31.543Z,68.00
2023-11-10T21:48:58.183Z,67.74
2023-11-10T21:51:24.864Z,66.85
2023-11-10T21:53:51.484Z,67.94
2023-11-10T21:56:18.892Z,67.91
2023-11-10T21:58:45.654Z,67.65
2023-11-10T22:01:17.224Z,66.98
2023-11-10T22:03:44.620Z,68.12
2023-11-10T22:06:11.825Z,67.69
2023-11-10T22:08:38.863Z,67.79
2023-11-10T22:11:06.008Z,67.66
2023-11-10T22:13:32.879Z,67.67
2023-11-10T22:15:59.520Z,68.17
2023-11-10T22:18:27.589Z,61.97
2023-11-10T22:20:54.205Z,74.59
2023-11-10T22:23:20.965Z,69.04
2023-11-10T22:25:47.920Z,68.22
2023-11-10T22:28:14.557Z,68.07
2023-11-10T22:30:41.327Z,68.42
2023-11-10T22:33:08.117Z,68.53
2023-11-10T22:35:36.290Z,68.18
2023-11-10T22:38:03.036Z,68.25
2023-11-10T22:40:29.953Z,68.41
2023-11-10T22:42:56.640Z,70.72
2023-11-10T22:45:23.666Z,69.27
2023-11-10T22:47:50.878Z,68.15
2023-11-10T22:50:17.810Z,68.26
2023-11-10T22:52:45.797Z,68.20
2023-11-10T22:55:16.886Z,68.33
2023-11-10T22:57:44.603Z,60.76
2023-11-10T23:00:30.650Z,72.74
2023-11-10T23:02:57.533Z,61.09
2023-11-10T23:05:24.410Z,71.27
2023-11-10T23:07:52.459Z,66.27
2023-11-10T23:10:19.373Z,69.34
2023-11-10T23:12:45.954Z,58.28
2023-11-10T23:15:12.833Z,70.59
2023-11-10T23:17:41.169Z,68.86
2023-11-10T23:20:16.363Z,60.46
2023-11-10T23:22:50.425Z,68.70
2023-11-10T23:25:18.483Z,68.81
2023-11-10T23:27:45.141Z,68.22
2023-11-10T23:30:12.316Z,68.14
2023-11-10T23:32:39.227Z,68.21
2023-11-10T23:35:08.039Z,68.52
2023-11-10T23:37:35.030Z,68.58
2023-11-10T23:40:01.909Z,68.29
2023-11-10T23:42:32.306Z,68.24
2023-11-10T23:44:59.020Z,68.57
2023-11-10T23:47:25.707Z,68.49
2023-11-10T23:49:54.975Z,68.21
2023-11-10T23:52:21.604Z,68.46
2023-11-10T23:54:48.227Z,68.08
2023-11-10T23:57:16.410Z,67.57
2023-11-10T23:59:44.495Z,67.70
